Time;durP1;ratioP1;P1;durP2;ratioP2;P2;SDS_P1;SDS_P2;PMS_P1;PMS_P2;Temp;Humidity;BMP_temperature;BMP_pressure;BME280_temperature;BME280_humidity;BME280_pressure;Samples;Min_cycle;Max_cycle;Signal;HPM_P1;HPM_P2
2021/10/27 00:03:00;;;;;;;11.30;5.63;;;;;;;;;;6314730;28;20028;-82
2021/10/27 00:06:01;;;;;;;9.82;5.07;;;;;;;;;;6308794;28;20469;-86
2021/10/27 00:09:02;;;;;;;5.60;4.85;;;;;;;;;;6276552;28;20028;-83
2021/10/27 00:12:03;;;;;;;8.52;5.57;;;7.30;99.90;;;;;;6266770;28;20483;-84
2021/10/27 00:15:05;;;;;;;6.50;4.68;;;7.00;99.90;;;;;;6292385;28;20081;-84
2021/10/27 00:18:06;;;;;;;6.45;4.80;;;;;;;;;;6259904;28;20518;-85
2021/10/27 00:21:07;;;;;;;8.85;4.90;;;7.10;99.90;;;;;;6286078;28;20021;-85
2021/10/27 00:24:07;;;;;;;7.07;4.75;;;6.90;99.90;;;;;;6264001;28;20433;-83
2021/10/27 00:27:09;;;;;;;7.72;4.88;;;6.80;99.90;;;;;;6296708;28;20029;-86
2021/10/27 00:30:10;;;;;;;7.53;5.15;;;7.40;99.90;;;;;;6259163;28;20031;-82
2021/10/27 00:33:11;;;;;;;8.13;5.00;;;7.00;99.90;;;;;;6265749;28;20029;-83
2021/10/27 00:36:12;;;;;;;5.70;4.72;;;;;;;;;;6259168;28;20485;-83
2021/10/27 00:39:13;;;;;;;10.98;5.88;;;;;;;;;;6291824;28;20402;-86
2021/10/27 00:42:13;;;;;;;9.43;4.85;;;6.90;99.90;;;;;;6260544;28;20031;-84
2021/10/27 00:45:14;;;;;;;6.75;5.15;;;6.60;99.90;;;;;;6291665;28;20059;-84
2021/10/27 00:48:15;;;;;;;11.57;4.90;;;;;;;;;;6274737;28;20025;-83
2021/10/27 00:51:16;;;;;;;8.73;5.72;;;;;;;;;;6289478;28;20707;-85
2021/10/27 00:54:17;;;;;;;6.60;5.10;;;6.40;99.90;;;;;;6274973;28;20473;-84
2021/10/27 00:57:20;;;;;;;7.28;5.68;;;6.60;99.90;;;;;;6263663;28;20051;-84
2021/10/27 01:00:21;;;;;;;6.40;5.20;;;6.40;99.90;;;;;;6266853;28;20048;-87
2021/10/27 01:03:22;;;;;;;9.00;5.30;;;6.40;99.90;;;;;;6258961;28;20028;-82
2021/10/27 01:06:22;;;;;;;8.38;5.50;;;6.60;99.90;;;;;;6259501;28;20037;-84
2021/10/27 01:09:23;;;;;;;9.18;5.55;;;;;;;;;;6262647;28;20108;-84
2021/10/27 01:12:24;;;;;;;7.78;5.60;;;;;;;;;;6271190;28;20021;-84
2021/10/27 01:15:25;;;;;;;7.82;4.80;;;6.70;99.90;;;;;;6303502;28;20477;-85
2021/10/27 01:18:26;;;;;;;6.60;5.32;;;;;;;;;;6278633;28;20036;-83
2021/10/27 01:21:31;;;;;;;8.95;5.10;;;;;;;;;;6299170;28;20131;-82
2021/10/27 01:24:31;;;;;;;7.70;5.80;;;6.40;99.90;;;;;;6299794;28;20024;-82
2021/10/27 01:27:32;;;;;;;11.63;5.68;;;;;;;;;;6295227;28;20082;-84
2021/10/27 01:30:33;;;;;;;9.27;6.55;;;6.40;99.90;;;;;;6274758;28;20028;-83
2021/10/27 01:33:34;;;;;;;9.73;5.93;;;6.60;99.90;;;;;;6278414;28;20040;-83
2021/10/27 01:36:34;;;;;;;9.25;5.95;;;6.40;99.90;;;;;;6299108;28;20036;-85
2021/10/27 01:39:35;;;;;;;9.65;5.68;;;6.40;99.90;;;;;;6281676;28;20492;-85
2021/10/27 01:42:36;;;;;;;9.20;5.57;;;;;;;;;;6282940;28;20053;-84
2021/10/27 01:45:36;;;;;;;8.52;5.80;;;6.20;99.90;;;;;;6283824;28;20059;-82
2021/10/27 01:48:37;;;;;;;10.57;6.00;;;;;;;;;;6303186;28;20481;-86
2021/10/27 01:51:38;;;;;;;9.35;6.07;;;;;;;;;;6320077;28;20065;-85
2021/10/27 01:54:40;;;;;;;8.25;5.22;;;6.50;99.90;;;;;;6281208;28;20032;-83
2021/10/27 01:57:41;;;;;;;7.50;5.90;;;;;;;;;;6305476;28;20036;-83
2021/10/27 02:00:42;;;;;;;8.30;6.05;;;;;;;;;;6320250;28;20063;-84
2021/10/27 02:03:43;;;;;;;7.55;5.43;;;;;;;;;;6319971;28;20028;-82
2021/10/27 02:06:44;;;;;;;8.60;6.03;;;;;;;;;;6303119;28;20028;-85
2021/10/27 02:09:45;;;;;;;7.05;5.32;;;6.30;99.90;;;;;;6282693;28;20394;-85
2021/10/27 02:12:46;;;;;;;8.55;5.68;;;;;;;;;;6275992;28;20024;-86
2021/10/27 02:15:46;;;;;;;9.10;5.75;;;6.30;99.90;;;;;;6303058;28;20040;-85
2021/10/27 02:18:47;;;;;;;10.63;5.40;;;6.10;99.90;;;;;;6317733;28;20120;-84
2021/10/27 02:21:48;;;;;;;6.68;5.00;;;;;;;;;;6262416;28;20020;-82
2021/10/27 02:24:49;;;;;;;7.47;5.07;;;6.30;99.90;;;;;;6288844;28;20052;-82
2021/10/27 02:27:49;;;;;;;6.80;4.63;;;;;;;;;;6273978;28;20033;-82
2021/10/27 02:30:51;;;;;;;59.13;32.53;;;;;;;;;;6297700;28;20020;-84
2021/10/27 02:33:52;;;;;;;7.30;5.68;;;;;;;;;;6270126;28;20031;-86
2021/10/27 02:36:52;;;;;;;8.10;7.30;;;6.00;99.90;;;;;;6264690;28;20599;-83
2021/10/27 02:39:53;;;;;;;8.40;6.63;;;;;;;;;;6262035;28;20025;-83
2021/10/27 02:42:54;;;;;;;10.75;8.70;;;;;;;;;;6295174;28;20029;-85
2021/10/27 02:45:55;;;;;;;28.33;14.15;;;;;;;;;;6297324;28;20070;-85
2021/10/27 02:48:56;;;;;;;58.78;28.40;;;;;;;;;;6305104;28;20031;-82
2021/10/27 02:51:57;;;;;;;63.90;33.50;;;;;;;;;;6289399;28;20016;-83
2021/10/27 02:54:58;;;;;;;13.80;8.35;;;;;;;;;;6291431;28;20056;-83
2021/10/27 02:58:00;;;;;;;14.57;8.70;;;;;;;;;;6295729;28;20028;-86
2021/10/27 03:01:01;;;;;;;45.33;26.92;;;;;;;;;;6279631;28;20119;-83
2021/10/27 03:04:02;;;;;;;48.53;31.38;;;;;;;;;;6296315;28;20021;-83
2021/10/27 03:07:03;;;;;;;22.40;15.43;;;5.70;99.90;;;;;;6302655;28;20063;-84
2021/10/27 03:10:04;;;;;;;8.88;6.35;;;5.80;99.90;;;;;;6266978;28;20025;-83
2021/10/27 03:13:05;;;;;;;10.10;6.80;;;;;;;;;;6277393;28;20490;-82
2021/10/27 03:16:06;;;;;;;13.05;9.45;;;5.60;99.90;;;;;;6269860;28;20432;-83
2021/10/27 03:19:07;;;;;;;14.57;9.18;;;;;;;;;;6266986;28;20032;-84
2021/10/27 03:22:08;;;;;;;9.20;6.28;;;;;;;;;;6318816;28;20095;-84
2021/10/27 03:25:09;;;;;;;7.55;6.32;;;5.60;99.90;;;;;;6311862;28;20070;-83
2021/10/27 03:28:10;;;;;;;7.63;6.07;;;;;;;;;;6277366;28;20446;-85
2021/10/27 03:31:11;;;;;;;9.45;6.68;;;;;;;;;;6303409;28;20155;-85
2021/10/27 03:34:11;;;;;;;8.65;6.70;;;5.70;99.90;;;;;;6288357;28;20485;-83
2021/10/27 03:37:14;;;;;;;8.02;6.25;;;;;;;;;;6260659;28;20032;-83
2021/10/27 03:40:15;;;;;;;12.48;7.07;;;;;;;;;;6269502;28;20135;-82
2021/10/27 03:43:18;;;;;;;11.40;6.25;;;5.60;99.90;;;;;;6276773;28;20024;-84
2021/10/27 03:46:19;;;;;;;8.77;5.57;;;;;;;;;;6293565;28;20414;-83
2021/10/27 03:49:20;;;;;;;8.82;5.65;;;5.90;99.90;;;;;;6276641;28;20024;-84
2021/10/27 03:52:21;;;;;;;7.03;5.22;;;;;;;;;;6260245;28;20028;-83
2021/10/27 03:55:22;;;;;;;6.97;5.60;;;;;;;;;;6296216;28;20100;-83
2021/10/27 03:58:23;;;;;;;7.15;5.63;;;;;;;;;;6275999;28;20029;-82
2021/10/27 04:01:24;;;;;;;7.10;5.45;;;5.50;99.90;;;;;;6276451;28;20032;-82
2021/10/27 04:04:25;;;;;;;8.57;5.95;;;;;;;;;;6297061;28;20039;-84
2021/10/27 04:07:25;;;;;;;7.63;6.50;;;5.60;99.90;;;;;;6300568;28;20047;-82
2021/10/27 04:10:26;;;;;;;8.18;6.15;;;;;;;;;;6295829;28;20454;-85
2021/10/27 04:13:27;;;;;;;9.48;5.72;;;;;;;;;;6318248;28;20383;-81
2021/10/27 04:16:28;;;;;;;12.60;11.15;;;;;;;;;;6297369;28;20169;-85
2021/10/27 04:19:29;;;;;;;10.43;5.88;;;;;;;;;;6292276;28;20028;-82
2021/10/27 04:22:30;;;;;;;7.90;6.00;;;;;;;;;;6298074;28;20028;-83
2021/10/27 04:25:31;;;;;;;7.63;5.32;;;5.70;99.90;;;;;;6316935;28;20032;-84
2021/10/27 04:28:32;;;;;;;8.35;6.65;;;;;;;;;;6276288;28;20351;-81
2021/10/27 04:31:33;;;;;;;9.55;7.88;;;;;;;;;;6288165;28;20500;-83
2021/10/27 04:34:34;;;;;;;9.32;6.75;;;;;;;;;;6289720;28;20032;-87
2021/10/27 04:37:38;;;;;;;8.70;6.18;;;5.50;99.90;;;;;;6307321;28;20477;-86
2021/10/27 04:40:42;;;;;;;9.05;6.28;;;5.60;99.90;;;;;;6274744;28;20063;-85
2021/10/27 04:43:43;;;;;;;10.13;5.85;;;;;;;;;;6265907;28;20038;-83
2021/10/27 04:46:44;;;;;;;9.05;5.10;;;;;;;;;;6293721;28;20020;-85
2021/10/27 04:49:45;;;;;;;7.78;5.32;;;5.60;99.90;;;;;;6291866;28;20032;-83
2021/10/27 04:52:45;;;;;;;6.47;5.10;;;5.40;99.90;;;;;;6273795;28;20053;-82
2021/10/27 04:55:46;;;;;;;8.55;6.43;;;5.50;99.90;;;;;;6287853;28;20120;-81
2021/10/27 04:58:47;;;;;;;16.67;9.73;;;5.20;99.90;;;;;;6274850;28;20059;-84
2021/10/27 05:01:48;;;;;;;13.25;10.23;;;5.30;99.90;;;;;;6275148;28;20035;-81
2021/10/27 05:04:48;;;;;;;8.80;7.75;;;5.20;99.90;;;;;;6290583;28;20036;-81
2021/10/27 05:07:52;;;;;;;9.27;6.80;;;;;;;;;;6299750;28;20024;-81
2021/10/27 05:10:53;;;;;;;7.28;6.05;;;5.40;99.90;;;;;;6293610;28;20506;-84
2021/10/27 05:13:53;;;;;;;7.38;5.78;;;5.40;99.90;;;;;;6264555;28;20046;-83
2021/10/27 05:16:54;;;;;;;10.05;6.18;;;5.20;99.90;;;;;;6289979;28;20081;-82
2021/10/27 05:19:55;;;;;;;8.00;6.78;;;5.40;99.90;;;;;;6296552;28;20378;-83
2021/10/27 05:22:56;;;;;;;12.55;6.93;;;;;;;;;;6276328;28;20035;-84
2021/10/27 05:25:56;;;;;;;8.27;6.45;;;5.20;99.90;;;;;;6277866;28;20390;-82
2021/10/27 05:28:57;;;;;;;10.10;7.53;;;5.40;99.90;;;;;;6289525;28;20103;-84
2021/10/27 05:31:58;;;;;;;10.38;8.27;;;;;;;;;;6300243;28;20032;-85
2021/10/27 05:34:59;;;;;;;10.27;6.53;;;5.30;99.90;;;;;;6279908;28;20033;-86
2021/10/27 05:37:59;;;;;;;7.97;6.45;;;5.50;99.90;;;;;;6273067;28;20501;-84
2021/10/27 05:41:00;;;;;;;9.90;6.32;;;5.10;99.90;;;;;;6316054;28;20023;-83
2021/10/27 05:44:02;;;;;;;7.90;4.85;;;5.30;99.90;;;;;;6298822;28;20032;-86
2021/10/27 05:47:02;;;;;;;7.80;6.78;;;5.10;99.90;;;;;;6272553;28;20024;-87
2021/10/27 05:50:27;;;;;;;13.05;6.15;;;5.30;99.90;;;;;;6271403;28;20031;-84
2021/10/27 05:56:46;;;;;;;8.40;5.65;;;5.30;99.90;;;;;;6313815;28;20063;-84
2021/10/27 05:59:51;;;;;;;9.80;6.57;;;5.30;99.90;;;;;;6283892;28;20493;-85
2021/10/27 06:02:51;;;;;;;6.40;5.47;;;5.40;99.90;;;;;;6272423;28;20119;-84
2021/10/27 06:05:52;;;;;;;9.00;5.93;;;;;;;;;;6307850;28;20031;-86
2021/10/27 06:08:55;;;;;;;7.80;5.18;;;;;;;;;;6299663;28;20028;-84
2021/10/27 06:12:00;;;;;;;9.30;4.93;;;5.80;99.90;;;;;;6304676;28;20036;-88
2021/10/27 06:15:01;;;;;;;9.18;7.20;;;5.90;99.90;;;;;;6258891;28;20040;-85
2021/10/27 06:18:02;;;;;;;6.85;5.60;;;;;;;;;;6264378;28;20405;-82
2021/10/27 06:21:02;;;;;;;7.10;4.68;;;5.80;99.90;;;;;;6280868;28;20025;-82
2021/10/27 06:24:04;;;;;;;6.68;5.10;;;;;;;;;;6263955;28;20039;-87
2021/10/27 06:27:05;;;;;;;7.40;4.57;;;5.70;99.90;;;;;;6275946;28;20086;-85
2021/10/27 06:30:09;;;;;;;7.07;4.90;;;;;;;;;;6291503;28;20024;-89
2021/10/27 06:46:47;;;;;;;9.30;5.75;;;5.80;99.90;;;;;;6283964;28;20075;-82
2021/10/27 06:49:48;;;;;;;8.27;5.97;;;;;;;;;;6269031;28;20024;-83
2021/10/27 06:52:48;;;;;;;10.45;5.78;;;6.70;99.90;;;;;;6308607;28;20029;-86
2021/10/27 06:55:49;;;;;;;11.50;5.90;;;;;;;;;;6277674;28;20053;-83
2021/10/27 07:05:54;;;;;;;11.40;5.20;;;9.30;99.90;;;;;;6278383;28;20190;-85
2021/10/27 07:15:37;;;;;;;9.90;4.57;;;11.40;99.90;;;;;;6300380;28;20064;-85
2021/10/27 07:18:39;;;;;;;5.53;4.00;;;11.60;99.90;;;;;;6265036;28;20040;-91
2021/10/27 07:21:39;;;;;;;8.95;4.90;;;11.90;99.90;;;;;;6280109;28;20024;-85
2021/10/27 07:24:41;;;;;;;9.18;4.55;;;12.40;99.90;;;;;;6271434;28;20031;-84
2021/10/27 07:27:46;;;;;;;10.45;4.25;;;12.80;99.90;;;;;;6265123;28;20028;-84
2021/10/27 07:30:47;;;;;;;12.73;7.13;;;13.70;99.90;;;;;;6285219;28;20382;-84
2021/10/27 07:33:58;;;;;;;55.25;37.67;;;13.80;99.90;;;;;;6267132;28;20086;-85
2021/10/27 07:43:28;;;;;;;5.75;4.45;;;;;;;;;;6270375;28;20032;-89
2021/10/27 07:46:29;;;;;;;10.65;5.65;;;14.80;99.90;;;;;;6289283;28;20027;-85
2021/10/27 07:49:30;;;;;;;14.70;10.30;;;;;;;;;;6270261;28;20032;-88
2021/10/27 07:52:30;;;;;;;25.98;15.25;;;15.80;99.90;;;;;;6306370;28;20030;-84
2021/10/27 07:55:33;;;;;;;11.88;8.00;;;;;;;;;;6278510;28;20062;-86
2021/10/27 07:58:34;;;;;;;7.35;4.97;;;;;;;;;;6277694;28;20074;-88
2021/10/27 08:01:35;;;;;;;5.65;3.97;;;15.80;99.90;;;;;;6295070;28;20489;-86
2021/10/27 08:04:39;;;;;;;8.18;4.05;;;15.90;99.90;;;;;;6264870;28;20063;-86
2021/10/27 08:07:47;;;;;;;6.40;4.70;;;16.00;99.90;;;;;;6269913;28;20433;-85
2021/10/27 08:10:48;;;;;;;9.43;5.00;;;15.80;99.90;;;;;;6265544;28;20028;-85
2021/10/27 08:13:49;;;;;;;9.95;5.28;;;15.90;99.90;;;;;;6261965;28;20082;-89
2021/10/27 08:16:49;;;;;;;6.65;4.10;;;15.90;99.90;;;;;;6266030;28;20036;-85
2021/10/27 08:19:50;;;;;;;5.32;3.80;;;16.10;99.90;;;;;;6271913;28;20051;-85
2021/10/27 08:22:57;;;;;;;8.18;4.47;;;16.80;99.90;;;;;;6270037;28;20493;-87
2021/10/27 08:26:01;;;;;;;6.70;4.13;;;17.00;99.90;;;;;;6263596;28;20074;-87
2021/10/27 08:29:11;;;;;;;5.40;3.95;;;16.80;99.90;;;;;;6282612;28;20054;-86
2021/10/27 08:35:40;;;;;;;5.95;4.10;;;17.30;99.80;;;;;;6240767;28;20092;-86
2021/10/27 08:38:41;;;;;;;5.03;3.75;;;17.50;99.90;;;;;;6220002;28;20178;-87
2021/10/27 08:41:42;;;;;;;6.10;4.35;;;18.00;99.90;;;;;;6270572;28;20036;-86
2021/10/27 08:44:43;;;;;;;7.15;4.00;;;18.20;98.60;;;;;;6266377;28;20033;-86
2021/10/27 08:47:48;;;;;;;4.63;4.10;;;18.40;99.90;;;;;;6217454;28;20076;-87
2021/10/27 08:50:49;;;;;;;5.47;4.07;;;18.30;98.60;;;;;;6217388;28;20035;-90
2021/10/27 08:53:51;;;;;;;7.07;4.27;;;18.40;98.00;;;;;;6232940;28;20036;-85
2021/10/27 08:56:55;;;;;;;5.47;4.25;;;18.50;98.60;;;;;;6245422;28;20522;-86
2021/10/27 09:10:09;;;;;;;6.10;4.18;;;19.30;99.90;;;;;;6234159;28;20048;-86
2021/10/27 10:07:02;;;;;;;6.53;5.28;;;22.30;83.00;;;;;;6231103;28;20038;-86
2021/10/27 10:10:05;;;;;;;8.10;6.43;;;22.40;83.70;;;;;;6234449;28;20044;-86
2021/10/27 10:13:05;;;;;;;8.02;6.53;;;22.30;84.60;;;;;;6228112;28;20120;-87
2021/10/27 10:16:06;;;;;;;8.38;6.55;;;22.30;83.50;;;;;;6227871;28;20040;-87
2021/10/27 10:19:15;;;;;;;8.27;6.38;;;22.30;84.50;;;;;;6278857;28;20140;-89
2021/10/27 10:22:45;;;;;;;8.75;7.05;;;22.10;83.90;;;;;;6273169;28;20074;-88
2021/10/27 10:25:51;;;;;;;7.35;6.65;;;21.70;94.00;;;;;;6263190;28;20576;-87
2021/10/27 10:28:51;;;;;;;7.88;6.68;;;21.70;85.40;;;;;;6311428;28;20070;-86
2021/10/27 10:31:52;;;;;;;9.30;7.80;;;21.60;86.60;;;;;;6265974;28;20037;-87
2021/10/27 10:35:15;;;;;;;11.10;7.50;;;21.70;85.70;;;;;;6263291;28;20075;-86
2021/10/27 10:58:14;;;;;;;9.85;7.13;;;21.30;89.00;;;;;;6275082;28;20032;-88
2021/10/27 11:25:04;;;;;;;8.35;5.10;;;20.60;91.50;;;;;;6313992;28;19908;-87
2021/10/27 11:39:08;;;;;;;16.80;6.00;;;;;;;;;;6296967;28;20036;-86
2021/10/27 11:42:42;;;;;;;10.35;5.47;;;20.50;90.70;;;;;;6275821;28;20025;-85
2021/10/27 11:51:55;;;;;;;6.55;5.18;;;20.10;92.20;;;;;;6305499;28;20032;-86
2021/10/27 11:54:56;;;;;;;7.35;6.00;;;19.90;98.00;;;;;;6260408;28;20102;-87
2021/10/27 11:57:57;;;;;;;7.00;6.15;;;;;;;;;;6263344;28;20024;-86
2021/10/27 12:01:00;;;;;;;11.82;7.47;;;19.40;99.80;;;;;;6296430;28;20028;-82
2021/10/27 12:04:06;;;;;;;8.60;6.28;;;19.70;92.70;;;;;;6275748;28;20484;-92
2021/10/27 12:07:56;;;;;;;8.65;5.97;;;19.30;93.40;;;;;;6260587;28;20028;-84
2021/10/27 12:10:42;;;;;;;7.25;6.30;;;19.10;93.90;;;;;;6297241;28;20572;-83
2021/10/27 12:17:13;;;;;;;7.13;6.32;;;18.70;95.00;;;;;;6268894;28;20056;-85
2021/10/27 12:20:14;;;;;;;11.30;7.40;;;18.60;94.60;;;;;;6276386;28;20028;-84
2021/10/27 12:23:22;;;;;;;8.27;7.15;;;18.40;99.90;;;;;;6258072;28;20099;-86
2021/10/27 12:26:24;;;;;;;8.77;6.35;;;18.30;96.30;;;;;;6283798;28;20035;-84
2021/10/27 12:29:26;;;;;;;13.55;7.18;;;18.30;96.30;;;;;;6265285;28;20052;-86
2021/10/27 12:32:27;;;;;;;11.45;7.28;;;18.10;96.10;;;;;;6281054;28;20016;-86
2021/10/27 12:35:28;;;;;;;8.73;6.47;;;18.10;97.40;;;;;;6267349;28;20214;-85
2021/10/27 12:38:33;;;;;;;12.93;7.35;;;17.70;99.90;;;;;;6267300;28;20021;-86
2021/10/27 12:41:33;;;;;;;9.57;7.00;;;18.00;99.90;;;;;;6262859;28;20127;-87
2021/10/27 12:44:51;;;;;;;7.75;6.50;;;17.60;98.30;;;;;;6275688;28;20033;-87
2021/10/27 12:48:04;;;;;;;8.40;6.78;;;17.80;99.90;;;;;;6249844;28;20119;-88
2021/10/27 12:51:08;;;;;;;12.93;6.32;;;17.60;99.90;;;;;;6259124;28;20028;-89
2021/10/27 12:54:09;;;;;;;8.07;6.28;;;17.40;99.90;;;;;;6275752;28;20025;-88
2021/10/27 12:57:11;;;;;;;8.10;6.38;;;;;;;;;;6262255;28;20139;-87
2021/10/27 13:00:31;;;;;;;8.45;6.15;;;17.40;99.90;;;;;;6290879;28;20142;-88
2021/10/27 13:13:28;;;;;;;6.45;5.85;;;17.20;99.90;;;;;;6277440;28;20032;-86
2021/10/27 13:32:20;;;;;;;5.47;4.97;;;16.70;99.90;;;;;;6286713;28;20032;-88
2021/10/27 13:35:25;;;;;;;8.80;5.40;;;16.80;99.90;;;;;;6267104;28;20074;-92
2021/10/27 13:38:32;;;;;;;12.43;6.15;;;17.30;99.90;;;;;;6271461;28;20097;-92
2021/10/27 13:41:34;;;;;;;8.00;5.40;;;16.90;99.90;;;;;;6267451;28;20029;-87
2021/10/27 13:44:43;;;;;;;6.68;5.85;;;;;;;;;;6266990;28;20059;-89
2021/10/27 14:07:51;;;;;;;8.45;5.68;;;16.30;99.90;;;;;;6303903;28;20058;-89
2021/10/27 14:17:53;;;;;;;9.18;5.97;;;16.30;99.90;;;;;;6240284;28;20075;-85
2021/10/27 15:52:51;;;;;;;11.88;6.68;;;14.30;99.90;;;;;;6255222;28;20028;-88
2021/10/27 15:55:51;;;;;;;8.80;5.78;;;14.10;99.90;;;;;;6263112;28;20079;-87
2021/10/27 15:58:52;;;;;;;9.70;6.65;;;;;;;;;;6261575;28;20393;-87
2021/10/27 16:01:53;;;;;;;9.40;5.78;;;14.10;99.90;;;;;;6296585;28;20024;-86
2021/10/27 16:04:55;;;;;;;9.45;6.00;;;;;;;;;;6266501;28;20055;-87
2021/10/27 16:07:57;;;;;;;9.75;6.10;;;;;;;;;;6288894;28;20024;-84
2021/10/27 16:10:59;;;;;;;7.80;5.68;;;;;;;;;;6266225;28;20025;-82
2021/10/27 16:14:00;;;;;;;7.90;5.20;;;;;;;;;;6280938;28;20034;-85
2021/10/27 16:17:00;;;;;;;9.88;5.50;;;13.30;99.90;;;;;;6285094;28;20055;-84
2021/10/27 16:20:01;;;;;;;7.07;5.50;;;;;;;;;;6285159;28;20379;-85
2021/10/27 16:23:03;;;;;;;9.82;6.50;;;12.90;99.90;;;;;;6273660;28;20101;-84
2021/10/27 16:26:04;;;;;;;11.80;9.70;;;;;;;;;;6283164;28;20032;-84
2021/10/27 16:29:05;;;;;;;10.15;6.05;;;;;;;;;;6311197;28;20057;-83
2021/10/27 16:32:06;;;;;;;7.95;5.25;;;;;;;;;;6269575;28;20027;-84
2021/10/27 16:35:07;;;;;;;6.30;5.43;;;;;;;;;;6317957;28;20122;-83
2021/10/27 16:38:08;;;;;;;8.85;5.80;;;;;;;;;;6308881;28;20404;-81
2021/10/27 16:41:09;;;;;;;9.70;5.38;;;12.10;99.90;;;;;;6302658;28;20033;-82
2021/10/27 16:44:10;;;;;;;7.20;5.38;;;;;;;;;;6275332;28;20020;-82
2021/10/27 16:47:12;;;;;;;10.85;5.82;;;;;;;;;;6282814;28;20351;-82
2021/10/27 16:50:13;;;;;;;8.82;6.93;;;;;;;;;;6304570;28;20032;-83
2021/10/27 16:53:13;;;;;;;8.38;6.18;;;11.50;99.90;;;;;;6296217;28;20109;-84
2021/10/27 16:56:14;;;;;;;8.65;5.78;;;;;;;;;;6258507;28;20474;-85
2021/10/27 16:59:15;;;;;;;9.45;6.03;;;11.60;99.90;;;;;;6275256;28;20035;-84
2021/10/27 17:02:16;;;;;;;6.40;5.63;;;;;;;;;;6260930;28;20031;-82
2021/10/27 17:05:17;;;;;;;11.55;8.82;;;11.30;99.90;;;;;;6276102;28;20024;-85
2021/10/27 17:08:20;;;;;;;8.65;6.88;;;;;;;;;;6279774;28;20106;-85
2021/10/27 17:11:21;;;;;;;11.95;6.63;;;;;;;;;;6284608;28;20024;-86
2021/10/27 17:14:21;;;;;;;8.57;6.35;;;10.50;99.90;;;;;;6263342;28;20082;-84
2021/10/27 17:17:22;;;;;;;9.18;7.25;;;;;;;;;;6284132;28;20045;-85
2021/10/27 17:20:26;;;;;;;9.00;7.20;;;10.70;99.90;;;;;;6285104;28;20488;-87
2021/10/27 17:23:32;;;;;;;8.70;6.63;;;10.60;99.90;;;;;;6259241;28;20029;-84
2021/10/27 17:26:32;;;;;;;11.93;6.97;;;10.50;99.90;;;;;;6261999;28;20091;-85
2021/10/27 17:29:34;;;;;;;11.07;6.53;;;;;;;;;;6261944;28;20051;-85
2021/10/27 17:32:35;;;;;;;12.45;7.97;;;;;;;;;;6267082;28;20116;-84
2021/10/27 17:35:36;;;;;;;10.98;7.22;;;10.40;99.90;;;;;;6266861;28;20402;-86
2021/10/27 17:38:38;;;;;;;9.55;8.52;;;;;;;;;;6262303;28;20028;-84
2021/10/27 17:41:39;;;;;;;9.10;6.95;;;10.50;99.90;;;;;;6279482;28;20033;-85
2021/10/27 17:44:41;;;;;;;19.38;13.80;;;10.60;99.90;;;;;;6248383;28;20367;-81
2021/10/27 17:47:49;;;;;;;8.57;6.78;;;;;;;;;;6246633;28;20029;-82
2021/10/27 17:50:53;;;;;;;10.60;7.00;;;10.30;99.90;;;;;;6263802;28;20032;-83
2021/10/27 18:00:47;;;;;;;9.23;7.13;;;10.10;99.90;;;;;;6245752;28;20176;-81
2021/10/27 18:03:48;;;;;;;16.90;10.18;;;;;;;;;;6306281;28;20036;-82
2021/10/27 18:06:49;;;;;;;12.40;9.50;;;9.80;99.90;;;;;;6315019;28;20028;-82
2021/10/27 18:09:50;;;;;;;13.27;8.32;;;;;;;;;;6285794;28;20497;-84
2021/10/27 18:12:53;;;;;;;19.45;13.55;;;;;;;;;;6265429;28;20475;-82
2021/10/27 18:16:07;;;;;;;17.00;13.65;;;9.50;99.90;;;;;;6279671;28;20101;-82
2021/10/27 18:19:18;;;;;;;17.35;13.75;;;;;;;;;;6274646;28;20123;-82
2021/10/27 18:22:28;;;;;;;13.57;7.72;;;9.30;99.90;;;;;;6274780;28;20107;-82
2021/10/27 18:25:37;;;;;;;9.68;7.03;;;9.70;99.90;;;;;;6276654;28;20036;-83
2021/10/27 18:36:15;;;;;;;12.68;8.65;;;9.60;99.90;;;;;;6279105;28;20021;-83
2021/10/27 18:36:16;;;;;;;7.45;6.65;;;9.60;99.90;;;;;;6279839;28;20119;-85
2021/10/27 18:41:57;;;;;;;9.18;6.97;;;9.20;99.90;;;;;;6293362;28;20520;-85
2021/10/27 18:44:58;;;;;;;8.68;7.03;;;9.00;99.90;;;;;;6284342;28;20028;-82
2021/10/27 18:47:59;;;;;;;11.82;6.95;;;9.00;99.90;;;;;;6286235;28;20039;-83
2021/10/27 18:51:09;;;;;;;8.25;7.32;;;;;;;;;;6281748;28;20047;-85
2021/10/27 18:54:31;;;;;;;13.80;7.05;;;8.90;99.90;;;;;;6303394;28;20669;-87
2021/10/27 19:16:52;;;;;;;11.75;7.53;;;;;;;;;;6296180;28;20044;-86
2021/10/27 19:19:54;;;;;;;8.98;7.25;;;8.70;99.90;;;;;;6290695;28;20024;-86
2021/10/27 19:22:55;;;;;;;8.98;7.15;;;8.50;99.90;;;;;;6261055;28;20032;-85
2021/10/27 19:32:39;;;;;;;12.15;9.70;;;;;;;;;;6309642;28;20152;-88
2021/10/27 20:48:34;;;;;;;14.75;12.00;;;;;;;;;;6267370;28;20028;-88
2021/10/27 20:51:12;;;;;;;10.23;7.78;;;7.40;99.90;;;;;;6278585;28;20037;-83
2021/10/27 20:54:13;;;;;;;9.02;7.13;;;7.40;99.90;;;;;;6275907;28;20032;-84
2021/10/27 20:57:28;;;;;;;8.85;7.25;;;;;;;;;;6285667;28;20057;-82
2021/10/27 21:04:06;;;;;;;9.32;6.68;;;;;;;;;;6281915;28;20139;-82
2021/10/27 21:13:46;;;;;;;9.27;7.25;;;7.50;99.90;;;;;;6295810;28;20040;-82
2021/10/27 21:16:46;;;;;;;9.63;7.13;;;7.10;99.90;;;;;;6258982;28;20158;-84
2021/10/27 21:19:47;;;;;;;10.02;7.53;;;6.90;99.90;;;;;;6261994;28;20036;-83
2021/10/27 21:22:48;;;;;;;10.35;7.95;;;6.80;99.90;;;;;;6276722;28;20035;-81
2021/10/27 21:25:49;;;;;;;11.90;7.10;;;6.90;99.90;;;;;;6262531;28;20024;-81
2021/10/27 21:29:37;;;;;;;12.52;8.07;;;6.70;99.90;;;;;;6261076;28;20059;-82
2021/10/27 21:45:31;;;;;;;8.27;6.72;;;6.50;99.90;;;;;;6272869;28;20040;-81
2021/10/27 21:48:32;;;;;;;8.55;7.15;;;6.80;99.90;;;;;;6287518;28;20082;-81
2021/10/27 21:51:32;;;;;;;9.98;7.85;;;;;;;;;;6292998;28;20037;-81
2021/10/27 21:54:34;;;;;;;9.60;7.68;;;6.40;99.90;;;;;;6262368;28;20064;-82
2021/10/27 21:57:35;;;;;;;8.82;7.85;;;6.30;99.90;;;;;;6258178;28;20032;-83
2021/10/27 22:00:45;;;;;;;11.65;7.30;;;5.30;99.90;;;;;;6276345;28;20039;-82
2021/10/27 22:03:46;;;;;;;9.07;6.35;;;;;;;;;;6297526;28;20055;-83
2021/10/27 22:06:47;;;;;;;10.50;6.60;;;6.70;99.90;;;;;;6295910;28;20028;-82
2021/10/27 22:09:48;;;;;;;6.90;6.20;;;;;;;;;;6300265;28;20038;-82
2021/10/27 22:12:48;;;;;;;8.55;6.45;;;6.80;99.90;;;;;;6306624;28;20031;-81
2021/10/27 22:15:50;;;;;;;7.10;5.70;;;;;;;;;;6279449;28;20509;-82
2021/10/27 22:18:51;;;;;;;9.45;6.50;;;;;;;;;;6295487;28;20411;-82
2021/10/27 22:21:51;;;;;;;9.55;6.65;;;;;;;;;;6297756;28;20060;-82
2021/10/27 22:24:52;;;;;;;8.07;6.03;;;;;;;;;;6301773;28;20028;-82
2021/10/27 22:27:54;;;;;;;8.13;6.30;;;;;;;;;;6306349;28;20038;-82
2021/10/27 22:30:54;;;;;;;8.95;6.55;;;6.70;99.90;;;;;;6283226;28;20428;-82
2021/10/27 22:33:55;;;;;;;11.60;7.10;;;;;;;;;;6299763;28;20025;-83
2021/10/27 22:36:56;;;;;;;8.10;6.45;;;6.50;99.90;;;;;;6296560;28;20033;-81
2021/10/27 22:39:57;;;;;;;8.70;6.68;;;6.40;99.90;;;;;;6278342;28;20024;-81
2021/10/27 22:42:57;;;;;;;10.35;6.35;;;6.60;99.90;;;;;;6273541;28;20028;-81
2021/10/27 22:45:58;;;;;;;11.35;6.30;;;;;;;;;;6266917;28;20113;-80
2021/10/27 22:48:59;;;;;;;12.00;6.28;;;6.30;99.90;;;;;;6319400;28;20107;-82
2021/10/27 22:52:00;;;;;;;9.00;6.68;;;6.80;99.90;;;;;;6272732;28;20096;-81
2021/10/27 22:55:02;;;;;;;10.02;6.20;;;6.20;99.90;;;;;;6282061;28;20049;-83
2021/10/27 22:58:05;;;;;;;10.35;7.20;;;6.50;99.90;;;;;;6284732;28;20024;-82
2021/10/27 23:07:25;;;;;;;7.90;6.07;;;6.20;99.90;;;;;;6288464;28;20390;-80
2021/10/27 23:14:30;;;;;;;7.57;5.75;;;6.20;99.90;;;;;;6292332;28;20032;-81
2021/10/27 23:40:37;;;;;;;11.13;7.72;;;;;;;;;;6279560;28;20449;-82
2021/10/27 23:43:40;;;;;;;9.63;6.28;;;6.30;99.90;;;;;;6316989;28;20070;-81
2021/10/27 23:46:40;;;;;;;10.13;6.80;;;6.30;99.90;;;;;;6276048;28;20032;-80
2021/10/27 23:49:45;;;;;;;11.18;7.22;;;6.20;99.90;;;;;;6280048;28;20033;-82
